Time;durP1;ratioP1;P1;durP2;ratioP2;P2;SDS_P1;SDS_P2;PMS_P1;PMS_P2;Temp;Humidity;BMP_temperature;BMP_pressure;BME280_temperature;BME280_humidity;BME280_pressure;Samples;Min_cycle;Max_cycle;Signal;HPM_P1;HPM_P2
2024/04/13 00:01:57;0.00;0.00;0.62;0.00;0.00;0.62;3.90;3.17;;;27.00;28.00;;;;;;2042678;62;20452;-66
2024/04/13 00:04:42;0.00;0.00;0.62;0.00;0.00;0.62;4.73;3.03;;;26.90;28.00;;;;;;2042650;62;20465;-66
2024/04/13 00:07:27;0.00;0.00;0.62;0.00;0.00;0.62;3.53;3.00;;;26.90;28.00;;;;;;2043069;62;20868;-66
2024/04/13 00:10:11;0.00;0.00;0.62;0.00;0.00;0.62;3.60;2.43;;;27.00;28.00;;;;;;2042718;62;20461;-67
2024/04/13 00:12:59;0.00;0.00;0.62;0.00;0.00;0.62;3.90;3.07;;;26.90;28.00;;;;;;2042431;62;20535;-66
2024/04/13 00:15:54;0.00;0.00;0.62;0.00;0.00;0.62;3.20;2.33;;;26.90;28.00;;;;;;2042484;62;20466;-65
2024/04/13 00:18:41;0.00;0.00;0.62;0.00;0.00;0.62;4.00;2.73;;;26.90;28.00;;;;;;2042516;62;20457;-65
2024/04/13 00:21:25;0.00;0.00;0.62;0.00;0.00;0.62;3.60;2.33;;;26.90;28.00;;;;;;2042887;62;20543;-66
2024/04/13 00:24:11;0.00;0.00;0.62;0.00;0.00;0.62;3.67;2.40;;;26.90;28.00;;;;;;2042674;62;21084;-66
2024/04/13 00:26:56;0.00;0.00;0.62;0.00;0.00;0.62;3.60;2.87;;;26.90;28.00;;;;;;2042854;62;20460;-66
2024/04/13 00:29:43;0.00;0.00;0.62;0.00;0.00;0.62;3.40;2.70;;;26.90;28.00;;;;;;2042965;62;20496;-67
2024/04/13 00:32:28;0.00;0.00;0.62;0.00;0.00;0.62;5.30;3.57;;;26.90;28.00;;;;;;2042684;62;21025;-67
2024/04/13 00:35:13;0.00;0.00;0.62;0.00;0.00;0.62;4.30;3.60;;;26.90;28.00;;;;;;2042904;54;20462;-66
2024/04/13 00:37:58;0.00;0.00;0.62;0.00;0.00;0.62;3.60;2.77;;;26.90;28.00;;;;;;2042462;62;20469;-66
2024/04/13 00:40:43;0.00;0.00;0.62;0.00;0.00;0.62;3.60;2.50;;;27.00;28.10;;;;;;2043142;62;20466;-67
2024/04/13 00:43:28;0.00;0.00;0.62;0.00;0.00;0.62;3.40;2.37;;;26.90;28.00;;;;;;2042872;62;20486;-67
2024/04/13 00:46:23;0.00;0.00;0.62;0.00;0.00;0.62;2.77;2.33;;;26.90;28.00;;;;;;2042687;62;20454;-65
2024/04/13 00:49:19;0.00;0.00;0.62;0.00;0.00;0.62;3.10;2.20;;;26.90;28.00;;;;;;2042814;62;20536;-66
2024/04/13 00:52:07;0.00;0.00;0.62;0.00;0.00;0.62;4.63;2.40;;;26.90;28.00;;;;;;2042934;62;21053;-66
2024/04/13 00:54:55;0.00;0.00;0.62;0.00;0.00;0.62;2.93;1.90;;;26.90;28.00;;;;;;2042842;62;20999;-66
2024/04/13 00:57:42;0.00;0.00;0.62;0.00;0.00;0.62;2.57;2.00;;;26.90;28.00;;;;;;2042809;62;20457;-67
2024/04/13 01:00:27;0.00;0.00;0.62;0.00;0.00;0.62;3.17;2.47;;;26.90;28.00;;;;;;2042339;62;20453;-66
2024/04/13 01:03:14;0.00;0.00;0.62;0.00;0.00;0.62;2.63;1.77;;;26.90;28.00;;;;;;2042635;62;21123;-66
2024/04/13 01:06:00;0.00;0.00;0.62;0.00;0.00;0.62;2.70;2.30;;;26.90;28.00;;;;;;2042882;62;21036;-66
2024/04/13 01:08:44;0.00;0.00;0.62;0.00;0.00;0.62;4.07;2.00;;;26.90;28.00;;;;;;2042506;62;20523;-66
2024/04/13 01:11:34;0.00;0.00;0.62;0.00;0.00;0.62;3.73;2.20;;;26.90;28.00;;;;;;2042957;62;21041;-65
2024/04/13 01:14:20;0.00;0.00;0.62;0.00;0.00;0.62;3.80;2.63;;;26.90;28.00;;;;;;2042578;62;21006;-66
2024/04/13 01:17:05;0.00;0.00;0.62;0.00;0.00;0.62;3.10;2.50;;;26.90;28.00;;;;;;2042543;62;20963;-66
2024/04/13 01:19:53;0.00;0.00;0.62;0.00;0.00;0.62;2.53;2.10;;;26.90;28.00;;;;;;2042038;62;20469;-65
2024/04/13 01:22:43;0.00;0.00;0.62;0.00;0.00;0.62;2.93;1.97;;;26.90;28.00;;;;;;2042229;62;20510;-66
2024/04/13 01:25:31;0.00;0.00;0.62;0.00;0.00;0.62;2.73;2.00;;;26.90;28.00;;;;;;2042351;62;20539;-65
2024/04/13 01:28:17;0.00;0.00;0.62;0.00;0.00;0.62;2.63;2.27;;;26.90;28.00;;;;;;2051070;62;20579;-67
2024/04/13 01:31:02;0.00;0.00;0.62;0.00;0.00;0.62;4.00;2.10;;;26.90;28.00;;;;;;2051819;62;20483;-68
2024/04/13 01:33:46;0.00;0.00;0.62;0.00;0.00;0.62;2.77;2.30;;;26.80;27.90;;;;;;2051824;62;20520;-66
2024/04/13 01:36:36;0.00;0.00;0.62;0.00;0.00;0.62;3.00;2.20;;;26.80;28.00;;;;;;2051882;62;20474;-66
2024/04/13 01:39:21;0.00;0.00;0.62;0.00;0.00;0.62;2.63;1.93;;;26.90;28.00;;;;;;2051034;62;20459;-67
2024/04/13 01:42:08;0.00;0.00;0.62;0.00;0.00;0.62;3.30;2.07;;;26.90;28.00;;;;;;2051764;62;20459;-66
2024/04/13 01:44:54;0.00;0.00;0.62;0.00;0.00;0.62;3.03;2.13;;;26.80;28.00;;;;;;2051594;62;20915;-66
2024/04/13 01:47:39;0.00;0.00;0.62;0.00;0.00;0.62;3.07;2.30;;;26.90;28.00;;;;;;2052164;54;20471;-67
2024/04/13 01:50:24;0.00;0.00;0.62;0.00;0.00;0.62;3.47;2.17;;;26.80;28.00;;;;;;2047531;62;20905;-70
2024/04/13 01:53:08;0.00;0.00;0.62;0.00;0.00;0.62;3.20;1.90;;;26.80;28.00;;;;;;2051763;62;20458;-69
2024/04/13 01:55:53;0.00;0.00;0.62;0.00;0.00;0.62;3.20;2.03;;;26.80;28.00;;;;;;2051669;62;21060;-68
2024/04/13 01:58:40;0.00;0.00;0.62;0.00;0.00;0.62;3.00;2.23;;;26.80;28.00;;;;;;2051732;62;20492;-67
2024/04/13 02:01:25;0.00;0.00;0.62;0.00;0.00;0.62;3.10;2.07;;;26.80;28.00;;;;;;2051394;62;20921;-66
2024/04/13 02:03:51;0.00;0.00;0.62;0.00;0.00;0.62;2.30;2.00;;;26.80;28.00;;;;;;2051800;62;20406;-67
2024/04/13 02:06:17;0.00;0.00;0.62;0.00;0.00;0.62;3.13;2.00;;;26.80;28.00;;;;;;2051829;62;20947;-67
2024/04/13 02:08:43;0.00;0.00;0.62;0.00;0.00;0.62;3.73;2.10;;;26.80;28.00;;;;;;2051316;62;20801;-67
2024/04/13 02:11:10;0.00;0.00;0.62;0.00;0.00;0.62;3.30;2.20;;;26.80;28.00;;;;;;2051629;62;20490;-67
2024/04/13 02:13:37;0.00;0.00;0.62;0.00;0.00;0.62;2.50;2.10;;;26.80;28.00;;;;;;2051824;62;20519;-67
2024/04/13 02:16:06;0.00;0.00;0.62;0.00;0.00;0.62;2.87;1.80;;;26.80;28.00;;;;;;2051548;62;20422;-68
2024/04/13 02:18:32;0.00;0.00;0.62;0.00;0.00;0.62;2.40;1.63;;;26.80;28.00;;;;;;2051550;62;20466;-68
2024/04/13 02:20:59;0.00;0.00;0.62;0.00;0.00;0.62;3.07;2.00;;;26.80;28.00;;;;;;2051825;62;20410;-65
2024/04/13 02:23:25;0.00;0.00;0.62;0.00;0.00;0.62;3.20;1.97;;;26.80;28.00;;;;;;2051621;62;20406;-67
2024/04/13 02:25:51;0.00;0.00;0.62;0.00;0.00;0.62;3.00;2.10;;;26.80;28.00;;;;;;2051580;62;20414;-68
2024/04/13 02:28:36;0.00;0.00;0.62;0.00;0.00;0.62;3.20;2.50;;;26.80;28.00;;;;;;2051605;62;20456;-70
2024/04/13 02:31:23;0.00;0.00;0.62;0.00;0.00;0.62;2.97;1.90;;;26.80;28.00;;;;;;2051564;62;20455;-66
2024/04/13 02:34:08;0.00;0.00;0.62;0.00;0.00;0.62;2.90;2.40;;;26.80;28.00;;;;;;2051587;62;20924;-69
2024/04/13 02:36:53;0.00;0.00;0.62;0.00;0.00;0.62;2.90;1.90;;;26.80;28.00;;;;;;2051673;62;20865;-67
2024/04/13 02:39:39;0.00;0.00;0.62;0.00;0.00;0.62;4.00;2.50;;;26.80;28.00;;;;;;2051467;62;20532;-68
2024/04/13 02:42:24;0.00;0.00;0.62;0.00;0.00;0.62;3.27;2.20;;;26.80;28.00;;;;;;2051928;62;20498;-67
2024/04/13 02:45:10;0.00;0.00;0.62;0.00;0.00;0.62;3.10;2.50;;;26.80;28.00;;;;;;2051986;62;20919;-69
2024/04/13 02:47:57;0.00;0.00;0.62;0.00;0.00;0.62;3.43;2.10;;;26.80;28.00;;;;;;2051956;62;20463;-67
2024/04/13 02:50:41;0.00;0.00;0.62;0.00;0.00;0.62;2.50;1.97;;;26.80;28.00;;;;;;2052193;62;20491;-68
2024/04/13 02:53:26;0.00;0.00;0.62;0.00;0.00;0.62;4.10;2.10;;;26.80;28.00;;;;;;2051996;62;20462;-68
2024/04/13 02:56:11;0.00;0.00;0.62;0.00;0.00;0.62;2.60;1.70;;;26.80;28.00;;;;;;2051924;62;20459;-68
2024/04/13 02:58:56;0.00;0.00;0.62;0.00;0.00;0.62;3.77;2.27;;;26.80;28.00;;;;;;2052019;62;20463;-66
2024/04/13 03:01:41;0.00;0.00;0.62;0.00;0.00;0.62;2.97;2.13;;;26.80;28.00;;;;;;2052373;62;20536;-68
2024/04/13 03:04:28;0.00;0.00;0.62;0.00;0.00;0.62;3.10;2.00;;;26.80;28.50;;;;;;2051878;62;20996;-69
2024/04/13 03:07:13;0.00;0.00;0.62;0.00;0.00;0.62;3.43;2.10;;;26.80;28.00;;;;;;2051905;62;20463;-68
2024/04/13 03:09:57;0.00;0.00;0.62;0.00;0.00;0.62;2.50;2.10;;;26.70;27.90;;;;;;2052103;62;21354;-67
2024/04/13 03:12:42;0.00;0.00;0.62;0.00;0.00;0.62;2.73;1.90;;;26.70;27.90;;;;;;2052226;62;20491;-66
2024/04/13 03:15:27;0.00;0.00;0.62;0.00;0.00;0.62;2.80;2.07;;;26.70;27.90;;;;;;2051795;62;20467;-66
2024/04/13 03:18:11;0.00;0.00;0.62;0.00;0.00;0.62;3.63;2.67;;;26.70;27.90;;;;;;2052177;62;20475;-66
2024/04/13 03:20:59;0.00;0.00;0.62;0.00;0.00;0.62;2.70;2.03;;;26.80;28.00;;;;;;2052101;62;20494;-69
2024/04/13 03:23:44;0.00;0.00;0.62;0.00;0.00;0.62;4.73;2.70;;;26.70;27.90;;;;;;2052100;62;20870;-68
2024/04/13 03:26:28;0.00;0.00;0.62;0.00;0.00;0.62;3.37;2.63;;;26.70;27.90;;;;;;2051675;62;20468;-66
2024/04/13 03:29:13;0.00;0.00;0.62;0.00;0.00;0.62;3.00;2.67;;;26.70;27.90;;;;;;2051767;62;20466;-67
2024/04/13 03:31:57;0.00;0.00;0.62;0.00;0.00;0.62;3.17;2.20;;;26.70;27.90;;;;;;2052241;54;20458;-68
2024/04/13 03:34:42;0.00;0.00;0.62;0.00;0.00;0.62;3.93;2.83;;;26.70;27.90;;;;;;2052075;62;21015;-68
2024/04/13 03:37:29;0.00;0.00;0.62;0.00;0.00;0.62;2.90;2.50;;;26.70;28.40;;;;;;2051710;62;20479;-67
2024/04/13 03:40:14;0.00;0.00;0.62;0.00;0.00;0.62;4.10;3.03;;;26.70;27.90;;;;;;2051628;62;20484;-68
2024/04/13 03:42:59;0.00;0.00;0.62;0.00;0.00;0.62;3.30;3.00;;;26.70;27.90;;;;;;2052022;62;20471;-67
2024/04/13 03:45:53;0.00;0.00;0.62;0.00;0.00;0.62;4.70;3.43;;;26.70;27.90;;;;;;2051893;62;20497;-68
2024/04/13 03:48:41;0.00;0.00;0.62;0.00;0.00;0.62;3.30;2.77;;;26.70;27.90;;;;;;2051483;54;20454;-68
2024/04/13 03:51:27;0.00;0.00;0.62;0.00;0.00;0.62;3.43;2.93;;;26.70;27.90;;;;;;2051603;62;20462;-68
2024/04/13 03:54:14;0.00;0.00;0.62;0.00;0.00;0.62;4.13;3.00;;;26.70;27.90;;;;;;2052357;62;20459;-69
2024/04/13 03:56:59;0.00;0.00;0.62;0.00;0.00;0.62;5.40;3.50;;;26.70;27.90;;;;;;2051807;62;20505;-68
2024/04/13 03:59:44;0.00;0.00;0.62;0.00;0.00;0.62;3.53;3.17;;;26.70;27.90;;;;;;2051504;62;20485;-65
2024/04/13 04:02:28;0.00;0.00;0.62;0.00;0.00;0.62;5.80;3.90;;;26.70;27.90;;;;;;2052054;62;20867;-67
2024/04/13 04:05:13;0.00;0.00;0.62;0.00;0.00;0.62;3.87;3.00;;;26.70;27.90;;;;;;2052006;62;20466;-66
2024/04/13 04:07:58;0.00;0.00;0.62;0.00;0.00;0.62;4.50;3.50;;;26.60;27.90;;;;;;2051233;62;21007;-67
2024/04/13 04:10:46;0.00;0.00;0.62;0.00;0.00;0.62;4.33;3.43;;;26.70;27.90;;;;;;2051762;62;20947;-67
2024/04/13 04:13:31;0.00;0.00;0.62;0.00;0.00;0.62;4.00;3.23;;;26.60;27.90;;;;;;2051841;62;20499;-67
2024/04/13 04:16:16;0.00;0.00;0.62;0.00;0.00;0.62;5.03;3.30;;;26.70;27.90;;;;;;2052086;62;20520;-67
2024/04/13 04:19:01;0.00;0.00;0.62;0.00;0.00;0.62;4.70;3.43;;;26.70;27.90;;;;;;2051714;62;20524;-67
2024/04/13 04:21:45;0.00;0.00;0.62;0.00;0.00;0.62;4.63;3.87;;;26.70;27.90;;;;;;2051826;62;21070;-67
2024/04/13 04:24:30;0.00;0.00;0.62;0.00;0.00;0.62;5.00;4.50;;;26.60;27.90;;;;;;2051878;62;21019;-66
2024/04/13 04:27:19;0.00;0.00;0.62;0.00;0.00;0.62;4.93;3.53;;;26.60;27.90;;;;;;2051950;62;20459;-66
2024/04/13 04:30:05;0.00;0.00;0.62;0.00;0.00;0.62;3.93;3.50;;;26.60;27.90;;;;;;2051676;62;21097;-68
2024/04/13 04:32:50;0.00;0.00;0.62;0.00;0.00;0.62;4.00;3.00;;;26.60;27.90;;;;;;2051772;62;20508;-66
2024/04/13 04:35:37;0.00;0.00;0.62;0.00;0.00;0.62;3.90;3.23;;;26.70;27.90;;;;;;2051818;62;20550;-66
2024/04/13 04:38:21;0.00;0.00;0.62;0.00;0.00;0.62;4.13;3.57;;;26.70;27.90;;;;;;2051957;62;20479;-66
2024/04/13 04:41:06;0.00;0.00;0.62;0.00;0.00;0.62;4.10;3.20;;;26.60;27.90;;;;;;2051812;62;20534;-66
2024/04/13 04:43:53;0.00;0.00;0.62;0.00;0.00;0.62;4.17;3.63;;;26.60;27.90;;;;;;2051802;62;20463;-66
2024/04/13 04:46:38;0.00;0.00;0.62;0.00;0.00;0.62;4.43;3.30;;;26.60;27.90;;;;;;2051885;62;20479;-66
2024/04/13 04:49:23;0.00;0.00;0.62;0.00;0.00;0.62;4.70;4.20;;;26.60;28.40;;;;;;2051838;62;20467;-66
2024/04/13 04:52:07;0.00;0.00;0.62;0.00;0.00;0.62;5.00;3.60;;;26.60;27.90;;;;;;2051795;62;21016;-66
2024/04/13 04:54:55;0.00;0.00;0.62;0.00;0.00;0.62;7.60;3.70;;;26.60;27.90;;;;;;2051774;62;20917;-66
2024/04/13 04:57:39;0.00;0.00;0.62;0.00;0.00;0.62;3.80;3.40;;;26.60;27.90;;;;;;2051874;62;21035;-66
2024/04/13 05:00:29;0.00;0.00;0.62;0.00;0.00;0.62;3.70;3.30;;;26.60;27.90;;;;;;2051890;62;20467;-67
2024/04/13 05:03:13;0.00;0.00;0.62;0.00;0.00;0.62;3.77;3.10;;;26.60;27.90;;;;;;2051754;62;20861;-67
2024/04/13 05:05:58;0.00;0.00;0.62;0.00;0.00;0.62;4.60;3.40;;;26.60;27.90;;;;;;2051195;62;20524;-67
2024/04/13 05:08:45;0.00;0.00;0.62;0.00;0.00;0.62;4.23;3.60;;;26.60;27.90;;;;;;2051735;62;20516;-67
2024/04/13 05:11:29;0.00;0.00;0.62;0.00;0.00;0.62;3.93;3.40;;;26.60;27.90;;;;;;2052042;62;20451;-67
2024/04/13 05:14:18;0.00;0.00;0.62;0.00;0.00;0.62;4.20;3.43;;;26.60;27.90;;;;;;2051665;62;20463;-67
2024/04/13 05:17:06;0.00;0.00;0.62;0.00;0.00;0.62;4.00;3.37;;;26.60;27.90;;;;;;2051784;62;20505;-67
2024/04/13 05:19:50;0.00;0.00;0.62;0.00;0.00;0.62;4.90;3.60;;;26.60;27.90;;;;;;2051536;62;20536;-67
2024/04/13 05:22:35;0.00;0.00;0.62;0.00;0.00;0.62;4.27;3.50;;;26.60;27.90;;;;;;2052091;62;20462;-67
2024/04/13 05:25:20;0.00;0.00;0.62;0.00;0.00;0.62;4.93;3.90;;;26.60;27.90;;;;;;2051118;62;20511;-67
2024/04/13 05:28:05;0.00;0.00;0.62;0.00;0.00;0.62;4.93;3.77;;;26.60;27.90;;;;;;2051963;62;20545;-67
2024/04/13 05:30:56;0.00;0.00;0.62;0.00;0.00;0.62;5.30;3.93;;;26.60;27.90;;;;;;2051678;62;21901;-67
2024/04/13 05:33:44;0.00;0.00;0.62;0.00;0.00;0.62;6.40;3.97;;;26.60;27.90;;;;;;2051944;62;21060;-67
2024/04/13 05:36:29;0.00;0.00;0.62;0.00;0.00;0.62;5.77;4.70;;;26.60;27.90;;;;;;2051612;62;20576;-67
2024/04/13 05:39:14;0.00;0.00;0.62;0.00;0.00;0.62;7.03;4.40;;;26.60;27.90;;;;;;2051432;62;21018;-67
2024/04/13 05:41:59;0.00;0.00;0.62;0.00;0.00;0.62;5.77;4.43;;;26.60;27.90;;;;;;2051754;62;20524;-67
2024/04/13 05:44:43;0.00;0.00;0.62;0.00;0.00;0.62;6.67;5.20;;;26.60;27.90;;;;;;2052173;62;20490;-67
2024/04/13 05:47:28;0.00;0.00;0.62;0.00;0.00;0.62;6.30;4.97;;;26.60;27.90;;;;;;2051362;62;20883;-66
2024/04/13 05:50:15;0.00;0.00;0.62;0.00;0.00;0.62;6.67;5.37;;;26.60;27.90;;;;;;2051575;62;20465;-66
2024/04/13 05:53:00;0.00;0.00;0.62;0.00;0.00;0.62;6.40;5.23;;;26.60;27.90;;;;;;2051857;62;20470;-66
2024/04/13 05:55:45;0.00;0.00;0.62;0.00;0.00;0.62;9.47;5.30;;;26.60;27.90;;;;;;2051834;62;20459;-67
2024/04/13 05:58:29;0.00;0.00;0.62;0.00;0.00;0.62;9.13;5.73;;;26.60;27.90;;;;;;2052036;62;21254;-67
2024/04/13 06:01:14;0.00;0.00;0.62;0.00;0.00;0.62;6.53;5.40;;;26.60;27.90;;;;;;2051656;62;20454;-67
2024/04/13 06:03:59;0.00;0.00;0.62;0.00;0.00;0.62;8.03;6.67;;;26.60;27.90;;;;;;2051803;62;20469;-69
2024/04/13 06:06:46;0.00;0.00;0.62;0.00;0.00;0.62;7.17;6.23;;;26.60;27.90;;;;;;2052099;62;20509;-67
2024/04/13 06:09:30;0.00;0.00;0.62;0.00;0.00;0.62;10.73;6.23;;;26.60;27.90;;;;;;2051330;62;20532;-68
2024/04/13 06:12:15;0.00;0.00;0.62;0.00;0.00;0.62;7.17;6.03;;;26.60;27.90;;;;;;2051475;62;20467;-67
2024/04/13 06:15:00;0.00;0.00;0.62;0.00;0.00;0.62;8.77;6.90;;;26.60;27.90;;;;;;2051824;62;20847;-66
2024/04/13 06:17:46;0.00;0.00;0.62;0.00;0.00;0.62;8.93;7.10;;;26.60;27.90;;;;;;2051132;62;20549;-67
2024/04/13 06:20:30;0.00;0.00;0.62;0.00;0.00;0.62;9.97;6.70;;;26.60;27.90;;;;;;2051460;62;20451;-66
2024/04/13 06:23:17;0.00;0.00;0.62;0.00;0.00;0.62;8.93;6.97;;;26.60;27.90;;;;;;2051629;62;20492;-66
2024/04/13 06:26:02;0.00;0.00;0.62;0.00;0.00;0.62;7.63;6.83;;;26.60;27.90;;;;;;2051713;62;20462;-67
2024/04/13 06:28:49;0.00;0.00;0.62;0.00;0.00;0.62;7.07;5.93;;;26.60;27.90;;;;;;2051954;62;21005;-67
2024/04/13 06:31:33;0.00;0.00;0.62;0.00;0.00;0.62;7.60;6.80;;;26.60;27.90;;;;;;2051625;62;20544;-66
2024/04/13 06:34:18;0.00;0.00;0.62;0.00;0.00;0.62;8.43;6.90;;;26.60;27.90;;;;;;2051627;62;20503;-67
2024/04/13 06:37:03;0.00;0.00;0.62;0.00;0.00;0.62;7.97;6.77;;;26.60;27.90;;;;;;2051823;62;20474;-66
2024/04/13 06:39:51;0.00;0.00;0.62;0.00;0.00;0.62;8.47;6.57;;;26.60;27.90;;;;;;2051595;62;20467;-66
2024/04/13 06:42:35;0.00;0.00;0.62;0.00;0.00;0.62;8.40;7.10;;;26.60;27.90;;;;;;2051562;62;20529;-66
2024/04/13 06:45:20;0.00;0.00;0.62;0.00;0.00;0.62;7.80;7.00;;;26.60;27.90;;;;;;2051593;62;20512;-67
2024/04/13 06:48:07;0.00;0.00;0.62;0.00;0.00;0.62;6.60;5.70;;;26.60;27.90;;;;;;2051570;62;20475;-67
2024/04/13 06:50:51;0.00;0.00;0.62;0.00;0.00;0.62;7.40;6.60;;;26.60;27.90;;;;;;2051712;62;21012;-66
2024/04/13 06:53:37;0.00;0.00;0.62;0.00;0.00;0.62;9.10;6.90;;;26.60;27.90;;;;;;2051017;62;20601;-66
2024/04/13 06:56:24;0.00;0.00;0.62;0.00;0.00;0.62;7.27;6.57;;;26.60;27.90;;;;;;2051354;62;20492;-66
2024/04/13 06:59:09;0.00;0.00;0.62;0.00;0.00;0.62;8.00;6.77;;;26.60;27.90;;;;;;2051591;62;20489;-67
2024/04/13 07:01:53;0.00;0.00;0.62;0.00;0.00;0.62;8.17;7.37;;;26.60;27.90;;;;;;2051677;62;20457;-66
2024/04/13 07:04:38;0.00;0.00;0.62;0.00;0.00;0.62;9.73;8.00;;;26.60;27.90;;;;;;2050839;62;20486;-66
2024/04/13 07:07:23;0.00;0.00;0.62;0.00;0.00;0.62;9.60;7.90;;;26.60;27.90;;;;;;2051478;62;20936;-67
2024/04/13 07:10:08;0.00;0.00;0.62;0.00;0.00;0.62;9.50;7.20;;;26.60;27.90;;;;;;2051544;62;20465;-66
2024/04/13 07:12:56;0.00;0.00;0.62;0.00;0.00;0.62;8.87;7.07;;;26.60;27.90;;;;;;2051319;62;20458;-66
2024/04/13 07:15:41;0.00;0.00;0.62;0.00;0.00;0.62;9.90;8.30;;;26.60;27.90;;;;;;2051264;62;20462;-67
2024/04/13 07:18:25;0.00;0.00;0.62;0.00;0.00;0.62;9.03;8.10;;;26.60;27.90;;;;;;2051198;62;20512;-65
2024/04/13 07:21:11;0.00;0.00;0.62;0.00;0.00;0.62;8.37;7.43;;;26.60;27.90;;;;;;2051617;62;20470;-67
2024/04/13 07:23:56;0.00;0.00;0.62;0.00;0.00;0.62;7.73;6.90;;;26.60;27.90;;;;;;2051872;62;20851;-66
2024/04/13 07:26:41;0.00;0.00;0.62;0.00;0.00;0.62;11.20;8.53;;;26.60;27.90;;;;;;2051847;62;20562;-66
2024/04/13 07:29:28;0.00;0.00;0.62;0.00;0.00;0.62;9.33;8.20;;;26.60;27.90;;;;;;2050951;62;20495;-65
2024/04/13 07:32:13;0.00;0.00;0.62;0.00;0.00;0.62;8.70;7.40;;;26.60;27.90;;;;;;2048180;62;21050;-66
2024/04/13 07:34:57;0.00;0.00;0.62;0.00;0.00;0.62;8.93;8.07;;;26.60;27.90;;;;;;2048754;62;20554;-66
2024/04/13 07:37:42;0.00;0.00;0.62;0.00;0.00;0.62;8.23;7.23;;;26.60;27.90;;;;;;2048350;62;20529;-66
2024/04/13 07:40:27;0.00;0.00;0.62;0.00;0.00;0.62;9.80;7.80;;;26.60;27.90;;;;;;2048333;62;20900;-66
2024/04/13 07:43:11;0.00;0.00;0.62;0.00;0.00;0.62;10.20;7.47;;;26.60;27.90;;;;;;2048542;62;20936;-64
2024/04/13 07:45:59;0.00;0.00;0.62;0.00;0.00;0.62;8.43;6.67;;;26.60;27.90;;;;;;2047917;62;20456;-66
2024/04/13 07:48:45;0.00;0.00;0.62;0.00;0.00;0.62;8.60;6.83;;;26.70;28.00;;;;;;2048398;62;20514;-65
2024/04/13 07:51:29;0.00;0.00;0.62;0.00;0.00;0.62;7.97;6.90;;;26.70;28.00;;;;;;2048544;62;20464;-65
2024/04/13 07:54:14;0.00;0.00;0.62;0.00;0.00;0.62;7.60;6.57;;;26.60;28.00;;;;;;2048376;62;20549;-65
2024/04/13 07:56:59;0.00;0.00;0.62;0.00;0.00;0.62;8.10;6.70;;;26.60;28.00;;;;;;2048314;62;20460;-65
2024/04/13 07:59:45;0.00;0.00;0.62;0.00;0.00;0.62;7.27;6.33;;;26.60;28.00;;;;;;2048281;62;20472;-65
2024/04/13 08:02:32;0.00;0.00;0.62;0.00;0.00;0.62;7.53;6.00;;;26.60;28.00;;;;;;2047819;62;20464;-66
2024/04/13 08:05:17;0.00;0.00;0.62;0.00;0.00;0.62;8.67;7.20;;;26.60;28.00;;;;;;2048244;62;20783;-66
2024/04/13 08:08:01;0.00;0.00;0.62;0.00;0.00;0.62;5.97;5.37;;;26.60;28.00;;;;;;2047582;62;21111;-65
2024/04/13 08:10:46;0.00;0.00;0.62;0.00;0.00;0.62;7.17;6.37;;;26.60;28.00;;;;;;2046394;62;20519;-65
2024/04/13 08:13:31;0.00;0.00;0.62;0.00;0.00;0.62;8.17;6.23;;;26.60;28.00;;;;;;2046888;62;20866;-66
2024/04/13 08:16:15;0.00;0.00;0.62;0.00;0.00;0.62;9.50;6.67;;;26.70;28.10;;;;;;2046863;62;20455;-67
2024/04/13 08:19:03;0.00;0.00;0.62;0.00;0.00;0.62;8.67;6.90;;;26.60;28.10;;;;;;2046712;62;20530;-67
2024/04/13 08:21:47;0.00;0.00;0.62;0.00;0.00;0.62;7.63;5.90;;;26.70;28.10;;;;;;2046399;62;20870;-66
2024/04/13 08:24:32;0.00;0.00;0.62;0.00;0.00;0.62;6.47;5.77;;;26.60;28.10;;;;;;2047325;62;20460;-66
2024/04/13 08:27:17;0.00;0.00;0.62;0.00;0.00;0.62;5.87;5.27;;;26.60;28.10;;;;;;2046907;62;20509;-67
2024/04/13 08:30:02;0.00;0.00;0.62;0.00;0.00;0.62;7.90;6.30;;;26.70;28.20;;;;;;2046566;62;20472;-64
2024/04/13 08:32:48;0.00;0.00;0.62;0.00;0.00;0.62;7.77;6.00;;;26.60;28.10;;;;;;2046738;62;20456;-66
2024/04/13 08:35:35;0.00;0.00;0.62;0.00;0.00;0.62;7.50;5.77;;;26.70;28.20;;;;;;2046662;62;20950;-66
2024/04/13 08:38:20;0.00;0.00;0.62;0.00;0.00;0.62;6.27;5.67;;;26.70;28.20;;;;;;2046757;62;20500;-66
2024/04/13 08:41:13;0.00;0.00;0.62;0.00;0.00;0.62;5.47;4.93;;;26.70;28.20;;;;;;2046763;62;21031;-65
2024/04/13 08:43:59;0.00;0.00;0.62;0.00;0.00;0.62;6.77;5.50;;;26.70;28.20;;;;;;2046702;62;20526;-66
2024/04/13 08:46:44;0.00;0.00;0.62;0.00;0.00;0.62;8.17;6.30;;;26.70;28.70;;;;;;2046927;62;20491;-64
2024/04/13 08:49:39;0.00;0.00;0.62;0.00;0.00;0.62;6.37;5.33;;;26.70;28.30;;;;;;2046558;62;20877;-66
2024/04/13 08:52:27;0.00;0.00;0.62;0.00;0.00;0.62;6.97;5.40;;;26.70;28.30;;;;;;2046369;62;20464;-66
2024/04/13 08:55:12;0.00;0.00;0.62;0.00;0.00;0.62;6.27;5.67;;;26.70;28.30;;;;;;2046660;62;20912;-67
2024/04/13 08:57:57;0.00;0.00;0.62;0.00;0.00;0.62;6.43;5.40;;;26.70;28.30;;;;;;2046589;62;20472;-66
2024/04/13 09:00:50;0.00;0.00;0.62;0.00;0.00;0.62;8.10;5.20;;;26.70;28.30;;;;;;2046839;62;20460;-66
2024/04/13 09:03:36;0.00;0.00;0.62;0.00;0.00;0.62;6.50;5.50;;;26.70;28.30;;;;;;2046837;62;20989;-66
2024/04/13 09:06:21;0.00;0.00;0.62;0.00;0.00;0.62;5.63;4.90;;;26.70;28.30;;;;;;2046741;62;20559;-66
2024/04/13 09:09:08;0.00;0.00;0.62;0.00;0.00;0.62;6.67;5.13;;;26.70;28.40;;;;;;2046576;62;20469;-63
2024/04/13 09:11:55;0.00;0.00;0.62;0.00;0.00;0.62;7.20;5.57;;;26.70;28.40;;;;;;2046670;62;20463;-65
2024/04/13 09:14:41;0.00;0.00;0.62;0.00;0.00;0.62;7.83;5.63;;;26.80;28.50;;;;;;2047058;62;21000;-64
2024/04/13 09:17:27;0.00;0.00;0.62;0.00;0.00;0.62;5.33;4.80;;;26.70;28.50;;;;;;2047013;62;20463;-68
2024/04/13 09:20:12;0.00;0.00;0.62;0.00;0.00;0.62;7.17;5.00;;;26.70;28.60;;;;;;2047505;62;20863;-66
2024/04/13 09:22:58;0.00;0.00;0.62;0.00;0.00;0.62;6.70;4.33;;;26.80;28.70;;;;;;2047125;62;20460;-64
2024/04/13 09:25:46;0.00;0.00;0.62;0.00;0.00;0.62;5.80;4.87;;;26.80;28.70;;;;;;2047005;62;20759;-65
2024/04/13 09:28:41;0.00;0.00;0.62;0.00;0.00;0.62;5.17;3.87;;;26.80;28.80;;;;;;2046850;62;20475;-64
2024/04/13 09:31:25;0.00;0.00;0.62;0.00;0.00;0.62;4.50;3.80;;;26.80;28.80;;;;;;2046726;62;20486;-65
2024/04/13 09:34:17;0.00;0.00;0.62;0.00;0.00;0.62;5.33;4.67;;;26.80;28.70;;;;;;2046943;62;20468;-65
2024/04/13 09:37:10;0.00;0.00;0.62;0.00;0.00;0.62;6.70;4.77;;;26.80;28.70;;;;;;2047091;62;20461;-63
2024/04/13 09:40:01;0.00;0.00;0.62;0.00;0.00;0.62;5.57;4.10;;;26.80;28.80;;;;;;2046804;62;20534;-64
2024/04/13 09:42:50;0.00;0.00;0.62;0.00;0.00;0.62;4.90;4.23;;;26.80;28.80;;;;;;2046897;62;20460;-64
2024/04/13 09:45:38;0.00;0.00;0.62;0.00;0.00;0.62;5.57;4.30;;;26.80;28.80;;;;;;2046777;62;20460;-64
2024/04/13 09:48:24;0.00;0.00;0.62;0.00;0.00;0.62;4.77;4.20;;;26.80;28.80;;;;;;2046862;62;20460;-63
2024/04/13 09:51:09;0.00;0.00;0.62;0.00;0.00;0.62;5.00;4.03;;;26.80;28.70;;;;;;2046993;62;20958;-64
2024/04/13 09:53:54;0.00;0.00;0.62;0.00;0.00;0.62;5.53;4.33;;;26.80;28.70;;;;;;2046778;62;20929;-64
2024/04/13 09:56:39;0.00;0.00;0.62;0.00;0.00;0.62;5.83;4.30;;;26.90;28.70;;;;;;2046879;62;20947;-64
2024/04/13 09:59:30;0.00;0.00;0.62;0.00;0.00;0.62;5.43;4.00;;;26.90;29.30;;;;;;2046737;62;20529;-63
2024/04/13 10:02:17;0.00;0.00;0.62;0.00;0.00;0.62;4.90;4.17;;;26.90;28.70;;;;;;2046745;62;21021;-63
2024/04/13 10:05:02;0.00;0.00;0.62;0.00;0.00;0.62;5.50;4.07;;;26.90;28.70;;;;;;2046874;62;20456;-63
2024/04/13 10:07:48;0.00;0.00;0.62;0.00;0.00;0.62;5.10;3.33;;;26.90;28.70;;;;;;2046879;62;20538;-64
2024/04/13 10:10:36;0.00;0.00;0.62;0.00;0.00;0.62;4.40;3.90;;;26.90;28.70;;;;;;2046804;62;20538;-63
2024/04/13 10:13:26;0.00;0.00;0.62;0.00;0.00;0.62;5.10;4.10;;;26.90;28.60;;;;;;2046906;62;20559;-63
2024/04/13 10:16:15;0.00;0.00;0.62;0.00;0.00;0.62;3.43;2.97;;;26.90;28.60;;;;;;2046676;62;20483;-63
2024/04/13 10:19:00;0.00;0.00;0.62;0.00;0.00;0.62;4.20;3.80;;;26.90;29.20;;;;;;2047003;62;21060;-63
2024/04/13 10:21:48;0.00;0.00;0.62;0.00;0.00;0.62;4.93;3.63;;;27.00;28.70;;;;;;2046895;62;20472;-64
2024/04/13 10:24:33;0.00;0.00;0.62;0.00;0.00;0.62;3.93;3.20;;;27.00;28.70;;;;;;2046743;62;20526;-64
2024/04/13 10:27:22;0.00;0.00;0.62;0.00;0.00;0.62;5.17;3.43;;;27.00;28.70;;;;;;2046895;62;20497;-64
2024/04/13 10:30:08;0.00;0.00;0.62;0.00;0.00;0.62;3.90;3.27;;;27.00;28.70;;;;;;2046704;62;20518;-64
2024/04/13 10:32:55;0.00;0.00;0.62;0.00;0.00;0.62;7.30;3.90;;;27.00;28.70;;;;;;2046883;62;20456;-62
2024/04/13 10:35:57;0.00;0.00;0.62;0.00;0.00;0.62;4.20;3.17;;;27.00;28.70;;;;;;2046843;62;20521;-64
2024/04/13 10:38:42;0.00;0.00;0.62;0.00;0.00;0.62;4.00;3.00;;;27.00;28.70;;;;;;2046608;62;20567;-63
2024/04/13 10:41:32;0.00;0.00;0.62;0.00;0.00;0.62;4.00;3.47;;;27.00;28.70;;;;;;2046796;62;20534;-63
2024/04/13 10:44:25;0.00;0.00;0.62;0.00;0.00;0.62;4.37;2.93;;;27.10;28.70;;;;;;2046844;62;20985;-64
2024/04/13 10:47:10;0.00;0.00;0.62;0.00;0.00;0.62;3.60;2.50;;;27.10;28.80;;;;;;2046687;62;20499;-64
2024/04/13 10:49:59;0.00;0.00;0.62;0.00;0.00;0.62;2.67;2.27;;;27.10;28.80;;;;;;2046631;62;20559;-64
2024/04/13 10:52:44;0.00;0.00;0.62;0.00;0.00;0.62;5.07;3.10;;;27.10;28.80;;;;;;2046656;62;20452;-63